Terminal Aerodrome Forecast
Issued by NWS

Home | Current Version | Previous Version | Text Only | Print | Product List | Glossary On
Versions: 1 2 3 4 5 6 7 8 9 10 11 12 13 14 15 16
000
FTUS42 KTAE 240538
TAFABY
TAF
KABY 240538Z 2406/2506 19006KT P6SM SKC
     FM240900 22003KT 6SM BR BKN005
     FM241300 25008KT P6SM SCT020 BKN035
     FM242100 26009KT 4SM TSRA BKN030CB
     FM250000 24005KT P6SM BKN050=

USA.gov is the U.S. government's official web portal to all federal, state and local government web resources and services.